sensor_id;sensor_type;location;lat;lon;timestamp;pressure;altitude;pressure_sealevel;temperature;humidity
12666;BME280;58531;59.050;17.416;2023-04-23T00:01:23;100187.78;;;4.19;96.94
12666;BME280;58531;59.050;17.416;2023-04-23T00:03:54;100185.59;;;4.14;96.67
12666;BME280;58531;59.050;17.416;2023-04-23T00:06:23;100189.03;;;4.11;97.32
12666;BME280;58531;59.050;17.416;2023-04-23T00:08:53;100185.75;;;4.03;97.58
12666;BME280;58531;59.050;17.416;2023-04-23T00:11:21;100182.47;;;3.96;97.91
12666;BME280;58531;59.050;17.416;2023-04-23T00:13:48;100183.66;;;3.91;98.66
12666;BME280;58531;59.050;17.416;2023-04-23T00:16:17;100180.69;;;3.89;98.20
12666;BME280;58531;59.050;17.416;2023-04-23T00:18:44;100174.69;;;3.85;98.63
12666;BME280;58531;59.050;17.416;2023-04-23T00:21:11;100179.63;;;3.83;99.24
12666;BME280;58531;59.050;17.416;2023-04-23T00:23:38;100174.78;;;3.78;100.00
12666;BME280;58531;59.050;17.416;2023-04-23T00:26:06;100177.16;;;3.73;99.70
12666;BME280;58531;59.050;17.416;2023-04-23T00:28:33;100169.25;;;3.69;99.28
12666;BME280;58531;59.050;17.416;2023-04-23T00:31:00;100166.78;;;3.59;100.00
12666;BME280;58531;59.050;17.416;2023-04-23T00:33:26;100164.19;;;3.55;100.00
12666;BME280;58531;59.050;17.416;2023-04-23T00:35:53;100165.44;;;3.47;100.00
12666;BME280;58531;59.050;17.416;2023-04-23T00:38:20;100159.84;;;3.42;100.00
12666;BME280;58531;59.050;17.416;2023-04-23T00:40:47;100157.25;;;3.39;100.00
12666;BME280;58531;59.050;17.416;2023-04-23T00:43:15;100157.28;;;3.35;100.00
12666;BME280;58531;59.050;17.416;2023-04-23T00:45:43;100161.81;;;3.35;100.00
12666;BME280;58531;59.050;17.416;2023-04-23T00:48:11;100156.94;;;3.33;100.00
12666;BME280;58531;59.050;17.416;2023-04-23T00:50:38;100150.22;;;3.29;100.00
12666;BME280;58531;59.050;17.416;2023-04-23T00:53:05;100143.84;;;3.26;100.00
12666;BME280;58531;59.050;17.416;2023-04-23T00:55:32;100149.16;;;3.23;100.00
12666;BME280;58531;59.050;17.416;2023-04-23T00:57:59;100141.28;;;3.19;100.00
12666;BME280;58531;59.050;17.416;2023-04-23T01:00:28;100140.59;;;3.15;100.00
12666;BME280;58531;59.050;17.416;2023-04-23T01:02:55;100149.28;;;3.12;100.00
12666;BME280;58531;59.050;17.416;2023-04-23T01:05:22;100152.31;;;3.11;100.00
12666;BME280;58531;59.050;17.416;2023-04-23T01:07:50;100156.16;;;3.06;100.00
12666;BME280;58531;59.050;17.416;2023-04-23T01:10:17;100151.72;;;3.00;100.00
12666;BME280;58531;59.050;17.416;2023-04-23T01:12:44;100151.00;;;2.96;100.00
12666;BME280;58531;59.050;17.416;2023-04-23T01:15:11;100141.25;;;2.89;100.00
12666;BME280;58531;59.050;17.416;2023-04-23T01:17:39;100149.59;;;2.84;100.00
12666;BME280;58531;59.050;17.416;2023-04-23T01:20:06;100152.69;;;2.79;100.00
12666;BME280;58531;59.050;17.416;2023-04-23T01:22:36;100147.50;;;2.72;100.00
12666;BME280;58531;59.050;17.416;2023-04-23T01:25:04;100140.75;;;2.68;100.00
12666;BME280;58531;59.050;17.416;2023-04-23T01:27:32;100135.88;;;2.66;100.00
12666;BME280;58531;59.050;17.416;2023-04-23T01:30:00;100133.97;;;2.67;100.00
12666;BME280;58531;59.050;17.416;2023-04-23T01:32:29;100142.28;;;2.65;100.00
12666;BME280;58531;59.050;17.416;2023-04-23T01:34:56;100140.03;;;2.64;100.00
12666;BME280;58531;59.050;17.416;2023-04-23T01:37:24;100149.56;;;2.54;100.00
12666;BME280;58531;59.050;17.416;2023-04-23T01:39:53;100140.22;;;2.46;100.00
12666;BME280;58531;59.050;17.416;2023-04-23T01:42:20;100140.97;;;2.47;100.00
12666;BME280;58531;59.050;17.416;2023-04-23T01:44:47;100136.44;;;2.47;100.00
12666;BME280;58531;59.050;17.416;2023-04-23T01:47:15;100145.47;;;2.46;100.00
12666;BME280;58531;59.050;17.416;2023-04-23T01:49:42;100142.50;;;2.44;100.00
12666;BME280;58531;59.050;17.416;2023-04-23T01:52:09;100142.50;;;2.44;100.00
12666;BME280;58531;59.050;17.416;2023-04-23T01:54:35;100138.75;;;2.42;100.00
12666;BME280;58531;59.050;17.416;2023-04-23T01:57:04;100137.63;;;2.43;100.00
12666;BME280;58531;59.050;17.416;2023-04-23T01:59:31;100138.44;;;2.36;100.00
12666;BME280;58531;59.050;17.416;2023-04-23T02:01:57;100139.16;;;2.40;100.00
12666;BME280;58531;59.050;17.416;2023-04-23T02:04:24;100138.00;;;2.41;100.00
12666;BME280;58531;59.050;17.416;2023-04-23T02:06:51;100135.00;;;2.39;100.00
12666;BME280;58531;59.050;17.416;2023-04-23T02:09:18;100135.41;;;2.38;100.00
12666;BME280;58531;59.050;17.416;2023-04-23T02:11:45;100134.28;;;2.35;100.00
12666;BME280;58531;59.050;17.416;2023-04-23T02:14:14;100132.44;;;2.32;100.00
12666;BME280;58531;59.050;17.416;2023-04-23T02:16:41;100137.34;;;2.30;100.00
12666;BME280;58531;59.050;17.416;2023-04-23T02:19:09;100135.84;;;2.29;100.00
12666;BME280;58531;59.050;17.416;2023-04-23T02:21:36;100138.16;;;2.28;100.00
12666;BME280;58531;59.050;17.416;2023-04-23T02:24:03;100143.06;;;2.26;100.00
12666;BME280;58531;59.050;17.416;2023-04-23T02:26:31;100143.06;;;2.26;100.00
12666;BME280;58531;59.050;17.416;2023-04-23T02:28:58;100141.88;;;2.30;100.00
12666;BME280;58531;59.050;17.416;2023-04-23T02:31:26;100145.59;;;2.36;100.00
12666;BME280;58531;59.050;17.416;2023-04-23T02:33:53;100144.00;;;2.45;100.00
12666;BME280;58531;59.050;17.416;2023-04-23T02:36:20;100142.78;;;2.53;100.00
12666;BME280;58531;59.050;17.416;2023-04-23T02:38:46;100142.31;;;2.62;100.00
12666;BME280;58531;59.050;17.416;2023-04-23T02:41:15;100149.38;;;2.72;100.00
12666;BME280;58531;59.050;17.416;2023-04-23T02:43:42;100145.53;;;2.80;100.00
12666;BME280;58531;59.050;17.416;2023-04-23T02:46:09;100143.19;;;2.85;100.00
12666;BME280;58531;59.050;17.416;2023-04-23T02:48:39;100145.03;;;2.92;100.00
12666;BME280;58531;59.050;17.416;2023-04-23T02:51:08;100142.31;;;2.95;100.00
12666;BME280;58531;59.050;17.416;2023-04-23T02:53:35;100145.66;;;3.03;100.00
12666;BME280;58531;59.050;17.416;2023-04-23T02:56:03;100133.84;;;3.11;100.00
12666;BME280;58531;59.050;17.416;2023-04-23T02:58:30;100139.81;;;3.18;100.00
12666;BME280;58531;59.050;17.416;2023-04-23T03:00:57;100143.16;;;3.22;100.00
12666;BME280;58531;59.050;17.416;2023-04-23T03:03:24;100132.50;;;3.29;100.00
12666;BME280;58531;59.050;17.416;2023-04-23T03:05:52;100133.09;;;3.40;100.00
12666;BME280;58531;59.050;17.416;2023-04-23T03:08:20;100134.03;;;3.53;100.00
12666;BME280;58531;59.050;17.416;2023-04-23T03:10:47;100136.16;;;3.65;100.00
12666;BME280;58531;59.050;17.416;2023-04-23T03:13:14;100135.63;;;3.73;100.00
12666;BME280;58531;59.050;17.416;2023-04-23T03:15:41;100132.50;;;3.82;100.00
12666;BME280;58531;59.050;17.416;2023-04-23T03:18:08;100136.91;;;3.88;100.00
12666;BME280;58531;59.050;17.416;2023-04-23T03:20:35;100137.97;;;3.94;100.00
12666;BME280;58531;59.050;17.416;2023-04-23T03:23:03;100140.53;;;3.98;100.00
12666;BME280;58531;59.050;17.416;2023-04-23T03:25:31;100145.38;;;4.03;100.00
12666;BME280;58531;59.050;17.416;2023-04-23T03:27:58;100146.34;;;4.12;100.00
12666;BME280;58531;59.050;17.416;2023-04-23T03:30:25;100144.72;;;4.18;100.00
12666;BME280;58531;59.050;17.416;2023-04-23T03:32:53;100134.75;;;4.29;100.00
12666;BME280;58531;59.050;17.416;2023-04-23T03:35:20;100134.16;;;4.41;100.00
12666;BME280;58531;59.050;17.416;2023-04-23T03:37:47;100137.75;;;4.51;100.00
12666;BME280;58531;59.050;17.416;2023-04-23T03:40:15;100143.25;;;4.60;100.00
12666;BME280;58531;59.050;17.416;2023-04-23T03:42:42;100137.50;;;4.64;100.00
12666;BME280;58531;59.050;17.416;2023-04-23T03:45:09;100136.34;;;4.65;100.00
12666;BME280;58531;59.050;17.416;2023-04-23T03:47:37;100135.47;;;4.72;100.00
12666;BME280;58531;59.050;17.416;2023-04-23T03:50:06;100130.81;;;4.79;100.00
12666;BME280;58531;59.050;17.416;2023-04-23T03:52:32;100136.69;;;4.87;100.00
12666;BME280;58531;59.050;17.416;2023-04-23T03:54:59;100132.69;;;4.98;100.00
12666;BME280;58531;59.050;17.416;2023-04-23T03:57:27;100135.53;;;5.07;100.00
12666;BME280;58531;59.050;17.416;2023-04-23T03:59:54;100127.78;;;5.16;100.00
12666;BME280;58531;59.050;17.416;2023-04-23T04:02:21;100132.84;;;5.27;100.00
12666;BME280;58531;59.050;17.416;2023-04-23T04:04:48;100132.97;;;5.39;100.00
12666;BME280;58531;59.050;17.416;2023-04-23T04:07:16;100129.00;;;5.47;100.00
12666;BME280;58531;59.050;17.416;2023-04-23T04:09:42;100130.28;;;5.59;100.00
12666;BME280;58531;59.050;17.416;2023-04-23T04:12:11;100128.63;;;5.65;100.00
12666;BME280;58531;59.050;17.416;2023-04-23T04:14:39;100129.72;;;6.15;99.17
12666;BME280;58531;59.050;17.416;2023-04-23T04:17:06;100130.81;;;7.02;91.74
12666;BME280;58531;59.050;17.416;2023-04-23T04:19:33;100124.47;;;7.87;89.74
12666;BME280;58531;59.050;17.416;2023-04-23T04:22:00;100133.16;;;8.25;86.28
12666;BME280;58531;59.050;17.416;2023-04-23T04:24:28;100130.47;;;8.59;83.79
12666;BME280;58531;59.050;17.416;2023-04-23T04:26:57;100134.06;;;8.86;81.10
12666;BME280;58531;59.050;17.416;2023-04-23T04:29:24;100137.63;;;9.14;78.71
12666;BME280;58531;59.050;17.416;2023-04-23T04:31:53;100135.00;;;9.92;75.75
12666;BME280;58531;59.050;17.416;2023-04-23T04:34:20;100127.84;;;9.80;72.78
12666;BME280;58531;59.050;17.416;2023-04-23T04:36:47;100131.44;;;9.95;74.51
12666;BME280;58531;59.050;17.416;2023-04-23T04:39:16;100132.84;;;10.18;72.77
12666;BME280;58531;59.050;17.416;2023-04-23T04:41:43;100122.75;;;10.22;72.51
12666;BME280;58531;59.050;17.416;2023-04-23T04:44:11;100130.19;;;10.62;70.29
12666;BME280;58531;59.050;17.416;2023-04-23T04:46:38;100126.75;;;10.89;68.95
12666;BME280;58531;59.050;17.416;2023-04-23T04:49:09;100134.84;;;11.63;65.81
12666;BME280;58531;59.050;17.416;2023-04-23T04:51:37;100123.94;;;12.45;62.97
12666;BME280;58531;59.050;17.416;2023-04-23T04:54:04;100124.34;;;12.82;60.16
12666;BME280;58531;59.050;17.416;2023-04-23T04:56:31;100119.81;;;13.45;57.76
12666;BME280;58531;59.050;17.416;2023-04-23T04:58:58;100123.75;;;13.64;57.57
12666;BME280;58531;59.050;17.416;2023-04-23T05:01:25;100129.03;;;13.93;56.21
12666;BME280;58531;59.050;17.416;2023-04-23T05:03:53;100121.56;;;14.88;54.03
12666;BME280;58531;59.050;17.416;2023-04-23T05:06:21;100126.28;;;15.91;49.73
12666;BME280;58531;59.050;17.416;2023-04-23T05:08:48;100129.09;;;17.26;46.59
12666;BME280;58531;59.050;17.416;2023-04-23T05:11:16;100134.63;;;18.96;42.73
12666;BME280;58531;59.050;17.416;2023-04-23T05:13:44;100128.41;;;20.31;38.34
12666;BME280;58531;59.050;17.416;2023-04-23T05:16:11;100123.69;;;20.14;37.75
12666;BME280;58531;59.050;17.416;2023-04-23T05:18:38;100129.72;;;20.62;37.05
12666;BME280;58531;59.050;17.416;2023-04-23T05:21:05;100127.31;;;21.08;35.40
12666;BME280;58531;59.050;17.416;2023-04-23T05:23:34;100124.88;;;21.36;35.67
12666;BME280;58531;59.050;17.416;2023-04-23T05:26:02;100126.56;;;21.52;34.63
12666;BME280;58531;59.050;17.416;2023-04-23T05:28:29;100125.72;;;21.00;36.26
12666;BME280;58531;59.050;17.416;2023-04-23T05:30:57;100126.19;;;20.30;36.51
12666;BME280;58531;59.050;17.416;2023-04-23T05:33:25;100122.84;;;20.61;36.36
12666;BME280;58531;59.050;17.416;2023-04-23T05:35:52;100117.47;;;22.40;33.34
12666;BME280;58531;59.050;17.416;2023-04-23T05:38:20;100122.94;;;22.61;33.07
12666;BME280;58531;59.050;17.416;2023-04-23T05:40:48;100115.50;;;23.35;30.50
12666;BME280;58531;59.050;17.416;2023-04-23T05:43:15;100114.22;;;22.42;31.88
12666;BME280;58531;59.050;17.416;2023-04-23T05:45:42;100109.72;;;22.18;32.86
12666;BME280;58531;59.050;17.416;2023-04-23T05:48:08;100105.91;;;22.60;32.35
12666;BME280;58531;59.050;17.416;2023-04-23T05:50:36;100110.31;;;23.52;31.00
12666;BME280;58531;59.050;17.416;2023-04-23T05:53:02;100118.94;;;24.34;28.93
12666;BME280;58531;59.050;17.416;2023-04-23T05:55:29;100119.94;;;23.05;30.97
12666;BME280;58531;59.050;17.416;2023-04-23T05:57:57;100109.97;;;22.87;32.13
12666;BME280;58531;59.050;17.416;2023-04-23T06:00:24;100118.16;;;22.54;30.99
12666;BME280;58531;59.050;17.416;2023-04-23T06:02:51;100111.78;;;20.72;34.11
12666;BME280;58531;59.050;17.416;2023-04-23T06:05:18;100110.28;;;20.58;34.90
12666;BME280;58531;59.050;17.416;2023-04-23T06:07:45;100107.88;;;21.87;33.25
12666;BME280;58531;59.050;17.416;2023-04-23T06:10:12;100107.25;;;22.87;30.93
12666;BME280;58531;59.050;17.416;2023-04-23T06:12:39;100107.97;;;22.87;31.20
12666;BME280;58531;59.050;17.416;2023-04-23T06:15:08;100105.25;;;23.28;30.28
12666;BME280;58531;59.050;17.416;2023-04-23T06:17:36;100090.88;;;22.46;30.94
12666;BME280;58531;59.050;17.416;2023-04-23T06:20:03;100098.56;;;22.88;30.89
12666;BME280;58531;59.050;17.416;2023-04-23T06:22:30;100102.78;;;23.94;29.26
12666;BME280;58531;59.050;17.416;2023-04-23T06:24:57;100095.84;;;23.09;30.25
12666;BME280;58531;59.050;17.416;2023-04-23T06:27:24;100096.84;;;23.47;29.11
12666;BME280;58531;59.050;17.416;2023-04-23T06:29:51;100094.50;;;23.23;29.30
12666;BME280;58531;59.050;17.416;2023-04-23T06:32:20;100087.13;;;23.59;28.60
12666;BME280;58531;59.050;17.416;2023-04-23T06:34:47;100100.16;;;24.23;28.38
12666;BME280;58531;59.050;17.416;2023-04-23T06:37:14;100098.50;;;25.60;26.59
12666;BME280;58531;59.050;17.416;2023-04-23T06:39:41;100095.31;;;26.01;26.50
12666;BME280;58531;59.050;17.416;2023-04-23T06:42:07;100089.34;;;25.88;26.41
12666;BME280;58531;59.050;17.416;2023-04-23T06:44:34;100089.00;;;25.84;25.18
12666;BME280;58531;59.050;17.416;2023-04-23T06:47:01;100094.88;;;24.83;27.53
12666;BME280;58531;59.050;17.416;2023-04-23T06:49:29;100091.09;;;25.23;27.05
12666;BME280;58531;59.050;17.416;2023-04-23T06:51:56;100087.59;;;24.78;27.80
12666;BME280;58531;59.050;17.416;2023-04-23T06:54:23;100088.03;;;23.89;28.53
12666;BME280;58531;59.050;17.416;2023-04-23T06:56:50;100083.88;;;23.96;28.80
12666;BME280;58531;59.050;17.416;2023-04-23T06:59:17;100082.34;;;23.80;28.82
12666;BME280;58531;59.050;17.416;2023-04-23T07:01:43;100083.53;;;24.49;28.09
12666;BME280;58531;59.050;17.416;2023-04-23T07:04:10;100081.03;;;24.66;28.25
12666;BME280;58531;59.050;17.416;2023-04-23T07:06:39;100072.63;;;25.69;25.71
12666;BME280;58531;59.050;17.416;2023-04-23T07:09:05;100079.53;;;24.50;27.89
12666;BME280;58531;59.050;17.416;2023-04-23T07:11:32;100068.09;;;25.49;26.57
12666;BME280;58531;59.050;17.416;2023-04-23T07:14:01;100064.63;;;24.81;26.80
12666;BME280;58531;59.050;17.416;2023-04-23T07:16:27;100068.81;;;24.52;28.03
12666;BME280;58531;59.050;17.416;2023-04-23T07:18:57;100055.53;;;25.31;26.08
12666;BME280;58531;59.050;17.416;2023-04-23T07:21:25;100060.78;;;23.33;27.67
12666;BME280;58531;59.050;17.416;2023-04-23T07:23:55;100055.50;;;22.67;29.55
12666;BME280;58531;59.050;17.416;2023-04-23T07:26:24;100037.09;;;22.39;29.35
12666;BME280;58531;59.050;17.416;2023-04-23T07:28:51;100033.38;;;22.16;30.39
12666;BME280;58531;59.050;17.416;2023-04-23T07:31:18;100038.81;;;22.70;29.74
12666;BME280;58531;59.050;17.416;2023-04-23T07:33:45;100041.09;;;21.79;30.69
12666;BME280;58531;59.050;17.416;2023-04-23T07:36:12;100041.16;;;21.86;30.42
12666;BME280;58531;59.050;17.416;2023-04-23T07:38:39;100042.34;;;21.78;30.80
12666;BME280;58531;59.050;17.416;2023-04-23T07:41:07;100031.53;;;21.98;30.01
12666;BME280;58531;59.050;17.416;2023-04-23T07:43:34;100022.75;;;20.70;32.85
12666;BME280;58531;59.050;17.416;2023-04-23T07:46:01;100013.19;;;20.01;33.80
12666;BME280;58531;59.050;17.416;2023-04-23T07:48:27;100021.69;;;19.68;34.25
12666;BME280;58531;59.050;17.416;2023-04-23T07:50:54;100021.88;;;18.75;36.82
12666;BME280;58531;59.050;17.416;2023-04-23T07:53:21;100017.28;;;17.78;37.27
12666;BME280;58531;59.050;17.416;2023-04-23T07:55:48;100018.66;;;17.44;39.48
12666;BME280;58531;59.050;17.416;2023-04-23T07:58:16;100013.09;;;17.83;39.33
12666;BME280;58531;59.050;17.416;2023-04-23T08:00:43;100007.84;;;17.44;39.86
12666;BME280;58531;59.050;17.416;2023-04-23T08:03:10;100003.91;;;17.45;40.83
12666;BME280;58531;59.050;17.416;2023-04-23T08:05:37;100004.34;;;17.60;39.54
12666;BME280;58531;59.050;17.416;2023-04-23T08:08:05;100004.25;;;17.82;40.31
12666;BME280;58531;59.050;17.416;2023-04-23T08:10:32;100002.72;;;17.35;40.15
12666;BME280;58531;59.050;17.416;2023-04-23T08:13:00;99994.94;;;16.66;40.07
12666;BME280;58531;59.050;17.416;2023-04-23T08:15:28;100000.81;;;16.43;43.20
12666;BME280;58531;59.050;17.416;2023-04-23T08:17:55;99992.94;;;16.28;43.36
12666;BME280;58531;59.050;17.416;2023-04-23T08:20:22;99996.16;;;16.49;41.66
12666;BME280;58531;59.050;17.416;2023-04-23T08:22:50;99999.09;;;16.51;42.19
12666;BME280;58531;59.050;17.416;2023-04-23T08:25:18;99997.38;;;16.37;41.99
12666;BME280;58531;59.050;17.416;2023-04-23T08:27:45;99991.47;;;16.38;41.70
12666;BME280;58531;59.050;17.416;2023-04-23T08:30:12;99988.19;;;15.96;41.93
12666;BME280;58531;59.050;17.416;2023-04-23T08:32:40;99989.88;;;15.88;42.25
12666;BME280;58531;59.050;17.416;2023-04-23T08:35:08;99985.75;;;15.98;43.45
12666;BME280;58531;59.050;17.416;2023-04-23T08:37:35;99988.00;;;16.10;41.99
12666;BME280;58531;59.050;17.416;2023-04-23T08:40:04;99987.25;;;15.40;42.57
12666;BME280;58531;59.050;17.416;2023-04-23T08:42:40;99996.13;;;15.16;43.86
12666;BME280;58531;59.050;17.416;2023-04-23T08:45:09;99995.13;;;15.13;43.05
12666;BME280;58531;59.050;17.416;2023-04-23T08:47:38;99985.53;;;15.01;44.06
12666;BME280;58531;59.050;17.416;2023-04-23T08:50:09;99988.34;;;15.23;44.61
12666;BME280;58531;59.050;17.416;2023-04-23T08:52:39;99986.22;;;15.33;43.26
12666;BME280;58531;59.050;17.416;2023-04-23T08:55:07;99986.56;;;15.51;42.96
12666;BME280;58531;59.050;17.416;2023-04-23T08:57:37;99977.50;;;15.12;44.39
12666;BME280;58531;59.050;17.416;2023-04-23T09:00:06;99978.69;;;15.42;44.03
12666;BME280;58531;59.050;17.416;2023-04-23T09:02:35;99971.72;;;15.72;43.55
12666;BME280;58531;59.050;17.416;2023-04-23T09:05:02;99964.91;;;15.87;42.82
12666;BME280;58531;59.050;17.416;2023-04-23T09:07:31;99970.06;;;15.91;43.51
12666;BME280;58531;59.050;17.416;2023-04-23T09:09:58;99961.22;;;15.85;42.64
12666;BME280;58531;59.050;17.416;2023-04-23T09:12:26;99966.66;;;15.96;43.70
12666;BME280;58531;59.050;17.416;2023-04-23T09:14:52;99952.94;;;15.94;42.27
12666;BME280;58531;59.050;17.416;2023-04-23T09:17:20;99961.03;;;15.99;41.75
12666;BME280;58531;59.050;17.416;2023-04-23T09:19:49;99964.22;;;15.98;41.73
12666;BME280;58531;59.050;17.416;2023-04-23T09:22:38;99949.53;;;15.99;41.93
12666;BME280;58531;59.050;17.416;2023-04-23T09:25:06;99949.06;;;16.06;41.21
12666;BME280;58531;59.050;17.416;2023-04-23T09:27:34;99963.06;;;15.46;42.15
12666;BME280;58531;59.050;17.416;2023-04-23T09:30:01;99961.63;;;15.56;44.24
12666;BME280;58531;59.050;17.416;2023-04-23T09:32:32;99956.47;;;15.58;42.20
12666;BME280;58531;59.050;17.416;2023-04-23T09:35:02;99938.09;;;15.40;43.62
12666;BME280;58531;59.050;17.416;2023-04-23T09:37:30;99941.53;;;15.51;42.37
12666;BME280;58531;59.050;17.416;2023-04-23T09:40:02;99930.56;;;15.66;42.96
12666;BME280;58531;59.050;17.416;2023-04-23T09:42:30;99937.25;;;15.87;42.21
12666;BME280;58531;59.050;17.416;2023-04-23T09:45:01;99925.25;;;15.93;42.33
12666;BME280;58531;59.050;17.416;2023-04-23T09:47:31;99927.50;;;16.17;41.69
12666;BME280;58531;59.050;17.416;2023-04-23T09:49:58;99932.44;;;16.40;41.42
12666;BME280;58531;59.050;17.416;2023-04-23T09:52:25;99929.00;;;16.40;40.60
12666;BME280;58531;59.050;17.416;2023-04-23T09:54:55;99927.50;;;16.17;41.37
12666;BME280;58531;59.050;17.416;2023-04-23T09:57:24;99918.19;;;15.96;42.44
12666;BME280;58531;59.050;17.416;2023-04-23T09:59:55;99913.31;;;16.16;41.65
12666;BME280;58531;59.050;17.416;2023-04-23T10:02:26;99912.81;;;16.29;42.49
12666;BME280;58531;59.050;17.416;2023-04-23T10:04:54;99910.63;;;16.38;41.83
12666;BME280;58531;59.050;17.416;2023-04-23T10:07:21;99909.88;;;16.27;42.50
12666;BME280;58531;59.050;17.416;2023-04-23T10:09:48;99904.91;;;15.76;43.25
12666;BME280;58531;59.050;17.416;2023-04-23T10:12:15;99903.56;;;15.38;43.64
12666;BME280;58531;59.050;17.416;2023-04-23T10:14:45;99897.34;;;15.80;45.59
12666;BME280;58531;59.050;17.416;2023-04-23T10:17:13;99892.44;;;15.89;43.34
12666;BME280;58531;59.050;17.416;2023-04-23T10:19:41;99888.53;;;16.07;43.47
12666;BME280;58531;59.050;17.416;2023-04-23T10:22:09;99888.06;;;16.14;43.21
12666;BME280;58531;59.050;17.416;2023-04-23T10:24:39;99879.97;;;16.14;43.07
12666;BME280;58531;59.050;17.416;2023-04-23T10:27:10;99879.25;;;16.30;43.46
12666;BME280;58531;59.050;17.416;2023-04-23T10:29:38;99879.75;;;16.28;42.72
12666;BME280;58531;59.050;17.416;2023-04-23T10:32:07;99882.41;;;15.90;43.88
12666;BME280;58531;59.050;17.416;2023-04-23T10:34:34;99882.94;;;16.05;44.16
12666;BME280;58531;59.050;17.416;2023-04-23T10:37:01;99873.34;;;15.82;45.02
12666;BME280;58531;59.050;17.416;2023-04-23T10:39:30;99864.53;;;15.70;43.01
12666;BME280;58531;59.050;17.416;2023-04-23T10:41:58;99862.06;;;15.67;43.07
12666;BME280;58531;59.050;17.416;2023-04-23T10:44:31;99855.97;;;15.77;43.63
12666;BME280;58531;59.050;17.416;2023-04-23T10:46:59;99852.03;;;15.73;42.63
12666;BME280;58531;59.050;17.416;2023-04-23T10:49:31;99835.41;;;15.80;43.23
12666;BME280;58531;59.050;17.416;2023-04-23T10:51:59;99848.56;;;15.45;42.85
12666;BME280;58531;59.050;17.416;2023-04-23T10:54:30;99843.94;;;15.56;43.44
12666;BME280;58531;59.050;17.416;2023-04-23T10:56:59;99840.28;;;15.70;43.58
12666;BME280;58531;59.050;17.416;2023-04-23T10:59:28;99831.47;;;15.70;42.42
12666;BME280;58531;59.050;17.416;2023-04-23T11:01:57;99835.38;;;15.58;42.34
12666;BME280;58531;59.050;17.416;2023-04-23T11:04:25;99842.25;;;15.81;42.45
12666;BME280;58531;59.050;17.416;2023-04-23T11:07:03;99834.63;;;15.63;42.72
12666;BME280;58531;59.050;17.416;2023-04-23T11:09:38;99837.94;;;15.25;42.09
12666;BME280;58531;59.050;17.416;2023-04-23T11:12:07;99827.09;;;14.98;43.42
12666;BME280;58531;59.050;17.416;2023-04-23T11:14:36;99828.47;;;14.77;43.45
12666;BME280;58531;59.050;17.416;2023-04-23T11:17:03;99817.94;;;14.73;44.39
12666;BME280;58531;59.050;17.416;2023-04-23T11:19:34;99809.88;;;14.68;45.10
12666;BME280;58531;59.050;17.416;2023-04-23T11:22:04;99804.06;;;14.86;44.55
12666;BME280;58531;59.050;17.416;2023-04-23T11:24:34;99809.53;;;15.13;44.80
12666;BME280;58531;59.050;17.416;2023-04-23T11:27:07;99802.56;;;15.43;44.82
12666;BME280;58531;59.050;17.416;2023-04-23T11:29:36;99796.22;;;15.57;44.04
12666;BME280;58531;59.050;17.416;2023-04-23T11:32:03;99797.22;;;15.54;43.83
12666;BME280;58531;59.050;17.416;2023-04-23T11:34:35;99782.53;;;15.66;43.16
12666;BME280;58531;59.050;17.416;2023-04-23T11:37:03;99778.84;;;15.96;44.20
12666;BME280;58531;59.050;17.416;2023-04-23T11:39:31;99776.84;;;16.30;42.88
12666;BME280;58531;59.050;17.416;2023-04-23T11:41:58;99772.19;;;16.47;43.48
12666;BME280;58531;59.050;17.416;2023-04-23T11:44:27;99774.81;;;16.68;42.56
12666;BME280;58531;59.050;17.416;2023-04-23T11:46:54;99771.06;;;16.82;41.70
12666;BME280;58531;59.050;17.416;2023-04-23T11:49:25;99772.97;;;16.98;43.20
12666;BME280;58531;59.050;17.416;2023-04-23T11:51:52;99771.59;;;16.75;41.82
12666;BME280;58531;59.050;17.416;2023-04-23T11:54:24;99766.63;;;16.85;41.98
12666;BME280;58531;59.050;17.416;2023-04-23T11:56:52;99762.19;;;16.98;41.51
12666;BME280;58531;59.050;17.416;2023-04-23T11:59:19;99760.25;;;17.34;42.35
12666;BME280;58531;59.050;17.416;2023-04-23T12:01:47;99762.78;;;17.61;41.25
12666;BME280;58531;59.050;17.416;2023-04-23T12:04:17;99750.06;;;17.10;41.72
12666;BME280;58531;59.050;17.416;2023-04-23T12:06:45;99748.00;;;16.92;41.97
12666;BME280;58531;59.050;17.416;2023-04-23T12:09:13;99742.34;;;16.90;41.77
12666;BME280;58531;59.050;17.416;2023-04-23T12:11:43;99735.72;;;16.91;42.43
12666;BME280;58531;59.050;17.416;2023-04-23T12:14:12;99736.34;;;16.68;42.50
12666;BME280;58531;59.050;17.416;2023-04-23T12:16:40;99733.97;;;16.99;42.14
12666;BME280;58531;59.050;17.416;2023-04-23T12:19:08;99726.22;;;16.79;42.85
12666;BME280;58531;59.050;17.416;2023-04-23T12:21:46;99717.28;;;17.01;42.49
12666;BME280;58531;59.050;17.416;2023-04-23T12:24:13;99725.03;;;17.15;43.49
12666;BME280;58531;59.050;17.416;2023-04-23T12:26:41;99710.28;;;17.57;41.79
12666;BME280;58531;59.050;17.416;2023-04-23T12:29:08;99713.91;;;17.35;40.94
12666;BME280;58531;59.050;17.416;2023-04-23T12:31:38;99707.22;;;17.01;41.16
12666;BME280;58531;59.050;17.416;2023-04-23T12:34:06;99698.72;;;16.86;41.97
12666;BME280;58531;59.050;17.416;2023-04-23T12:36:35;99696.56;;;17.20;42.33
12666;BME280;58531;59.050;17.416;2023-04-23T12:39:23;99693.22;;;17.03;42.28
12666;BME280;58531;59.050;17.416;2023-04-23T12:41:53;99691.75;;;17.42;40.67
12666;BME280;58531;59.050;17.416;2023-04-23T12:44:21;99689.44;;;17.81;40.24
12666;BME280;58531;59.050;17.416;2023-04-23T12:46:52;99695.38;;;17.80;40.88
12666;BME280;58531;59.050;17.416;2023-04-23T12:49:19;99677.84;;;17.27;40.93